sensor_id;sensor_type;location;lat;lon;timestamp;pressure;altitude;pressure_sealevel;temperature;humidity
42105;BME280;61464;51.472;5.712;2022-09-09T00:03:57;100660.66;;;13.12;100.00
42105;BME280;61464;51.472;5.712;2022-09-09T00:13:28;100648.50;;;13.04;100.00
42105;BME280;61464;51.472;5.712;2022-09-09T00:16:22;100652.19;;;13.09;100.00
42105;BME280;61464;51.472;5.712;2022-09-09T00:19:24;100652.28;;;13.01;100.00
42105;BME280;61464;51.472;5.712;2022-09-09T00:22:17;100645.16;;;12.95;100.00
42105;BME280;61464;51.472;5.712;2022-09-09T00:25:19;100638.75;;;12.83;100.00
42105;BME280;61464;51.472;5.712;2022-09-09T00:28:20;100644.31;;;12.80;100.00
42105;BME280;61464;51.472;5.712;2022-09-09T00:31:26;100640.19;;;12.85;100.00
42105;BME280;61464;51.472;5.712;2022-09-09T00:34:32;100643.06;;;12.76;100.00
42105;BME280;61464;51.472;5.712;2022-09-09T00:37:29;100641.09;;;12.78;100.00
42105;BME280;61464;51.472;5.712;2022-09-09T00:40:37;100645.84;;;12.74;100.00
42105;BME280;61464;51.472;5.712;2022-09-09T00:43:53;100645.13;;;12.80;100.00
42105;BME280;61464;51.472;5.712;2022-09-09T00:47:17;100641.25;;;12.76;100.00
42105;BME280;61464;51.472;5.712;2022-09-09T00:50:35;100641.19;;;12.84;100.00
42105;BME280;61464;51.472;5.712;2022-09-09T01:05:10;100631.56;;;12.85;100.00
42105;BME280;61464;51.472;5.712;2022-09-09T01:11:55;100626.25;;;12.78;100.00
42105;BME280;61464;51.472;5.712;2022-09-09T01:20:39;100634.03;;;12.63;100.00
42105;BME280;61464;51.472;5.712;2022-09-09T01:23:41;100641.03;;;12.63;100.00
42105;BME280;61464;51.472;5.712;2022-09-09T01:27:15;100633.09;;;12.56;100.00
42105;BME280;61464;51.472;5.712;2022-09-09T01:29:40;100635.88;;;12.55;100.00
42105;BME280;61464;51.472;5.712;2022-09-09T01:32:45;100624.66;;;12.54;100.00
42105;BME280;61464;51.472;5.712;2022-09-09T01:36:00;100623.91;;;12.45;100.00
42105;BME280;61464;51.472;5.712;2022-09-09T01:38:36;100620.09;;;12.56;100.00
42105;BME280;61464;51.472;5.712;2022-09-09T01:41:37;100612.50;;;12.46;100.00
42105;BME280;61464;51.472;5.712;2022-09-09T01:44:44;100611.44;;;12.41;100.00
42105;BME280;61464;51.472;5.712;2022-09-09T01:48:04;100610.50;;;12.34;100.00
42105;BME280;61464;51.472;5.712;2022-09-09T01:51:01;100608.94;;;12.47;100.00
42105;BME280;61464;51.472;5.712;2022-09-09T01:54:01;100615.75;;;12.48;100.00
42105;BME280;61464;51.472;5.712;2022-09-09T02:00:11;100611.47;;;12.56;100.00
42105;BME280;61464;51.472;5.712;2022-09-09T02:09:07;100603.59;;;12.64;100.00
42105;BME280;61464;51.472;5.712;2022-09-09T02:15:42;100603.50;;;12.57;100.00
42105;BME280;61464;51.472;5.712;2022-09-09T02:18:40;100595.13;;;12.47;100.00
42105;BME280;61464;51.472;5.712;2022-09-09T02:21:45;100597.19;;;12.52;100.00
42105;BME280;61464;51.472;5.712;2022-09-09T02:24:34;100594.22;;;12.55;100.00
42105;BME280;61464;51.472;5.712;2022-09-09T02:27:50;100599.72;;;12.60;100.00
42105;BME280;61464;51.472;5.712;2022-09-09T02:30:53;100589.22;;;12.53;100.00
42105;BME280;61464;51.472;5.712;2022-09-09T02:34:06;100596.63;;;12.41;100.00
42105;BME280;61464;51.472;5.712;2022-09-09T02:36:37;100592.16;;;12.50;100.00
42105;BME280;61464;51.472;5.712;2022-09-09T02:39:42;100593.84;;;12.43;100.00
42105;BME280;61464;51.472;5.712;2022-09-09T02:42:55;100591.03;;;12.44;100.00
42105;BME280;61464;51.472;5.712;2022-09-09T02:49:43;100585.72;;;12.38;100.00
42105;BME280;61464;51.472;5.712;2022-09-09T03:01:05;100590.13;;;12.37;100.00
42105;BME280;61464;51.472;5.712;2022-09-09T03:04:08;100586.84;;;12.43;100.00
42105;BME280;61464;51.472;5.712;2022-09-09T03:07:11;100586.72;;;12.37;100.00
42105;BME280;61464;51.472;5.712;2022-09-09T03:10:24;100592.69;;;12.45;100.00
42105;BME280;61464;51.472;5.712;2022-09-09T03:13:15;100598.84;;;12.44;100.00
42105;BME280;61464;51.472;5.712;2022-09-09T03:19:23;100588.84;;;12.56;100.00
42105;BME280;61464;51.472;5.712;2022-09-09T03:22:32;100597.06;;;12.68;100.00
42105;BME280;61464;51.472;5.712;2022-09-09T03:25:39;100602.25;;;12.68;100.00
42105;BME280;61464;51.472;5.712;2022-09-09T03:28:52;100599.69;;;12.83;100.00
42105;BME280;61464;51.472;5.712;2022-09-09T03:31:37;100592.97;;;12.88;100.00
42105;BME280;61464;51.472;5.712;2022-09-09T03:34:39;100600.31;;;12.85;100.00
42105;BME280;61464;51.472;5.712;2022-09-09T03:41:03;100604.28;;;12.96;100.00
42105;BME280;61464;51.472;5.712;2022-09-09T03:44:02;100594.16;;;13.01;100.00
42105;BME280;61464;51.472;5.712;2022-09-09T03:46:50;100604.56;;;13.01;100.00
42105;BME280;61464;51.472;5.712;2022-09-09T03:49:53;100607.63;;;13.04;100.00
42105;BME280;61464;51.472;5.712;2022-09-09T03:53:00;100601.50;;;13.12;100.00
42105;BME280;61464;51.472;5.712;2022-09-09T03:56:04;100605.59;;;13.30;100.00
42105;BME280;61464;51.472;5.712;2022-09-09T03:59:06;100603.31;;;13.26;100.00
42105;BME280;61464;51.472;5.712;2022-09-09T04:02:12;100602.34;;;13.27;100.00
42105;BME280;61464;51.472;5.712;2022-09-09T04:05:25;100597.22;;;13.34;100.00
42105;BME280;61464;51.472;5.712;2022-09-09T04:08:28;100588.06;;;13.38;100.00
42105;BME280;61464;51.472;5.712;2022-09-09T04:11:18;100586.09;;;13.40;100.00
42105;BME280;61464;51.472;5.712;2022-09-09T04:14:31;100588.44;;;13.35;100.00
42105;BME280;61464;51.472;5.712;2022-09-09T04:17:25;100595.81;;;13.32;100.00
42105;BME280;61464;51.472;5.712;2022-09-09T04:20:40;100595.81;;;13.32;100.00
42105;BME280;61464;51.472;5.712;2022-09-09T04:23:30;100590.91;;;13.28;100.00
42105;BME280;61464;51.472;5.712;2022-09-09T04:30:02;100576.84;;;13.38;100.00
42105;BME280;61464;51.472;5.712;2022-09-09T04:32:59;100577.47;;;13.40;100.00
42105;BME280;61464;51.472;5.712;2022-09-09T04:35:46;100582.59;;;13.33;100.00
42105;BME280;61464;51.472;5.712;2022-09-09T04:39:02;100584.72;;;13.44;100.00
42105;BME280;61464;51.472;5.712;2022-09-09T04:42:06;100578.09;;;13.42;100.00
42105;BME280;61464;51.472;5.712;2022-09-09T04:45:13;100575.94;;;13.45;100.00
42105;BME280;61464;51.472;5.712;2022-09-09T04:48:13;100571.34;;;13.47;100.00
42105;BME280;61464;51.472;5.712;2022-09-09T04:51:16;100566.13;;;13.47;100.00
42105;BME280;61464;51.472;5.712;2022-09-09T04:54:29;100567.56;;;13.50;100.00
42105;BME280;61464;51.472;5.712;2022-09-09T04:57:16;100561.00;;;13.54;100.00
42105;BME280;61464;51.472;5.712;2022-09-09T05:00:30;100564.03;;;13.43;100.00
42105;BME280;61464;51.472;5.712;2022-09-09T05:03:35;100565.50;;;13.31;100.00
42105;BME280;61464;51.472;5.712;2022-09-09T05:06:32;100572.41;;;13.23;100.00
42105;BME280;61464;51.472;5.712;2022-09-09T05:09:29;100570.38;;;13.34;100.00
42105;BME280;61464;51.472;5.712;2022-09-09T05:19:17;100569.56;;;13.33;100.00
42105;BME280;61464;51.472;5.712;2022-09-09T05:21:45;100565.38;;;13.24;100.00
42105;BME280;61464;51.472;5.712;2022-09-09T05:24:51;100570.91;;;13.29;100.00
42105;BME280;61464;51.472;5.712;2022-09-09T05:27:42;100564.53;;;13.32;100.00
42105;BME280;61464;51.472;5.712;2022-09-09T05:33:54;100566.13;;;13.33;100.00
42105;BME280;61464;51.472;5.712;2022-09-09T05:36:51;100561.91;;;13.32;100.00
42105;BME280;61464;51.472;5.712;2022-09-09T05:42:55;100563.22;;;13.27;100.00
42105;BME280;61464;51.472;5.712;2022-09-09T05:49:21;100563.63;;;13.39;100.00
42105;BME280;61464;51.472;5.712;2022-09-09T05:52:24;100568.19;;;13.52;100.00
42105;BME280;61464;51.472;5.712;2022-09-09T05:55:25;100570.78;;;13.52;100.00
42105;BME280;61464;51.472;5.712;2022-09-09T05:58:25;100588.31;;;13.58;100.00
42105;BME280;61464;51.472;5.712;2022-09-09T06:01:32;100583.44;;;13.70;100.00
42105;BME280;61464;51.472;5.712;2022-09-09T06:04:42;100582.22;;;13.87;100.00
42105;BME280;61464;51.472;5.712;2022-09-09T06:10:45;100599.41;;;13.97;100.00
42105;BME280;61464;51.472;5.712;2022-09-09T06:14:07;100588.59;;;14.21;100.00
42105;BME280;61464;51.472;5.712;2022-09-09T06:16:45;100593.00;;;14.42;100.00
42105;BME280;61464;51.472;5.712;2022-09-09T06:19:58;100592.72;;;15.08;100.00
42105;BME280;61464;51.472;5.712;2022-09-09T06:23:05;100588.41;;;15.29;100.00
42105;BME280;61464;51.472;5.712;2022-09-09T06:25:46;100587.09;;;15.53;100.00
42105;BME280;61464;51.472;5.712;2022-09-09T06:29:03;100584.41;;;15.33;100.00
42105;BME280;61464;51.472;5.712;2022-09-09T06:32:22;100585.97;;;14.93;100.00
42105;BME280;61464;51.472;5.712;2022-09-09T06:35:07;100580.81;;;14.71;100.00
42105;BME280;61464;51.472;5.712;2022-09-09T06:37:58;100576.25;;;14.80;100.00
42105;BME280;61464;51.472;5.712;2022-09-09T06:41:02;100579.91;;;14.85;100.00
42105;BME280;61464;51.472;5.712;2022-09-09T06:44:14;100578.38;;;14.69;100.00
42105;BME280;61464;51.472;5.712;2022-09-09T06:47:18;100589.84;;;14.68;100.00
42105;BME280;61464;51.472;5.712;2022-09-09T07:08:28;100590.03;;;15.30;100.00
42105;BME280;61464;51.472;5.712;2022-09-09T07:28:45;100587.38;;;15.72;98.95
42105;BME280;61464;51.472;5.712;2022-09-09T07:31:38;100589.25;;;15.78;98.46
42105;BME280;61464;51.472;5.712;2022-09-09T07:34:58;100582.97;;;15.79;97.84
42105;BME280;61464;51.472;5.712;2022-09-09T07:37:57;100581.22;;;15.86;96.98
42105;BME280;61464;51.472;5.712;2022-09-09T07:40:48;100578.59;;;15.86;96.52
42105;BME280;61464;51.472;5.712;2022-09-09T07:43:51;100582.25;;;16.05;95.55
42105;BME280;61464;51.472;5.712;2022-09-09T07:46:53;100578.25;;;16.36;94.51
42105;BME280;61464;51.472;5.712;2022-09-09T07:52:58;100590.34;;;16.30;92.34
42105;BME280;61464;51.472;5.712;2022-09-09T07:56:07;100593.16;;;16.48;92.26
42105;BME280;61464;51.472;5.712;2022-09-09T07:59:09;100589.56;;;16.43;92.35
42105;BME280;61464;51.472;5.712;2022-09-09T08:02:11;100589.53;;;16.56;91.56
42105;BME280;61464;51.472;5.712;2022-09-09T08:05:30;100591.56;;;16.74;91.73
42105;BME280;61464;51.472;5.712;2022-09-09T08:08:14;100601.06;;;16.88;90.91
42105;BME280;61464;51.472;5.712;2022-09-09T08:11:33;100599.84;;;16.84;89.71
42105;BME280;61464;51.472;5.712;2022-09-09T08:14:23;100604.69;;;16.94;88.92
42105;BME280;61464;51.472;5.712;2022-09-09T08:17:42;100610.50;;;17.09;88.27
42105;BME280;61464;51.472;5.712;2022-09-09T08:20:31;100610.28;;;17.11;88.94
42105;BME280;61464;51.472;5.712;2022-09-09T08:23:34;100600.56;;;17.32;88.06
42105;BME280;61464;51.472;5.712;2022-09-09T08:26:53;100603.56;;;17.28;87.42
42105;BME280;61464;51.472;5.712;2022-09-09T08:29:41;100609.22;;;17.32;86.75
42105;BME280;61464;51.472;5.712;2022-09-09T08:32:41;100612.09;;;17.17;87.63
42105;BME280;61464;51.472;5.712;2022-09-09T08:35:58;100610.88;;;17.20;86.81
42105;BME280;61464;51.472;5.712;2022-09-09T08:39:00;100613.34;;;16.95;87.84
42105;BME280;61464;51.472;5.712;2022-09-09T08:48:26;100617.91;;;17.26;87.45
42105;BME280;61464;51.472;5.712;2022-09-09T08:51:04;100611.81;;;17.39;85.77
42105;BME280;61464;51.472;5.712;2022-09-09T08:54:03;100612.34;;;17.61;84.20
42105;BME280;61464;51.472;5.712;2022-09-09T09:00:11;100617.66;;;17.47;84.22
42105;BME280;61464;51.472;5.712;2022-09-09T09:06:24;100612.19;;;17.49;84.56
42105;BME280;61464;51.472;5.712;2022-09-09T09:12:41;100622.44;;;17.57;82.81
42105;BME280;61464;51.472;5.712;2022-09-09T09:15:31;100629.16;;;17.46;82.84
42105;BME280;61464;51.472;5.712;2022-09-09T09:18:54;100633.25;;;17.36;83.48
42105;BME280;61464;51.472;5.712;2022-09-09T09:24:55;100642.97;;;17.02;85.23
42105;BME280;61464;51.472;5.712;2022-09-09T09:28:16;100634.69;;;17.18;84.90
42105;BME280;61464;51.472;5.712;2022-09-09T09:31:11;100632.25;;;17.23;84.41
42105;BME280;61464;51.472;5.712;2022-09-09T09:33:56;100632.38;;;17.48;83.18
42105;BME280;61464;51.472;5.712;2022-09-09T09:37:26;100633.19;;;17.49;82.03
42105;BME280;61464;51.472;5.712;2022-09-09T09:40:18;100628.53;;;17.58;82.73
42105;BME280;61464;51.472;5.712;2022-09-09T09:43:18;100638.66;;;17.47;83.22
42105;BME280;61464;51.472;5.712;2022-09-09T09:46:04;100641.44;;;17.53;82.19
42105;BME280;61464;51.472;5.712;2022-09-09T09:49:05;100629.44;;;17.25;83.02
42105;BME280;61464;51.472;5.712;2022-09-09T09:52:15;100638.31;;;17.17;83.71
42105;BME280;61464;51.472;5.712;2022-09-09T09:55:18;100632.66;;;17.27;82.63
42105;BME280;61464;51.472;5.712;2022-09-09T09:58:15;100635.50;;;17.12;82.97
42105;BME280;61464;51.472;5.712;2022-09-09T10:01:20;100626.63;;;17.00;84.09
42105;BME280;61464;51.472;5.712;2022-09-09T10:04:39;100624.78;;;17.20;83.48
42105;BME280;61464;51.472;5.712;2022-09-09T10:07:41;100633.44;;;17.34;83.04
42105;BME280;61464;51.472;5.712;2022-09-09T10:10:50;100631.88;;;17.72;81.78
42105;BME280;61464;51.472;5.712;2022-09-09T10:17:15;100627.13;;;18.07;79.60
42105;BME280;61464;51.472;5.712;2022-09-09T10:23:09;100633.75;;;17.64;81.17
42105;BME280;61464;51.472;5.712;2022-09-09T10:29:08;100634.81;;;17.50;81.06
42105;BME280;61464;51.472;5.712;2022-09-09T10:35:17;100635.78;;;17.62;81.62
42105;BME280;61464;51.472;5.712;2022-09-09T10:38:25;100634.94;;;17.68;82.54
42105;BME280;61464;51.472;5.712;2022-09-09T10:41:35;100635.75;;;17.69;83.73
42105;BME280;61464;51.472;5.712;2022-09-09T11:00:14;100638.38;;;15.82;100.00
42105;BME280;61464;51.472;5.712;2022-09-09T11:02:41;100641.34;;;15.73;100.00
42105;BME280;61464;51.472;5.712;2022-09-09T11:05:49;100644.34;;;15.69;100.00
42105;BME280;61464;51.472;5.712;2022-09-09T11:08:35;100649.13;;;15.59;100.00
42105;BME280;61464;51.472;5.712;2022-09-09T11:11:41;100657.03;;;15.38;100.00
42105;BME280;61464;51.472;5.712;2022-09-09T11:14:49;100654.56;;;15.29;100.00
42105;BME280;61464;51.472;5.712;2022-09-09T11:18:01;100651.16;;;15.29;100.00
42105;BME280;61464;51.472;5.712;2022-09-09T11:21:02;100660.63;;;15.30;100.00
42105;BME280;61464;51.472;5.712;2022-09-09T11:24:11;100653.34;;;15.25;100.00
42105;BME280;61464;51.472;5.712;2022-09-09T11:33:34;100644.94;;;15.30;100.00
42105;BME280;61464;51.472;5.712;2022-09-09T11:36:35;100643.63;;;15.89;100.00
42105;BME280;61464;51.472;5.712;2022-09-09T11:42:21;100642.38;;;16.66;100.00
42105;BME280;61464;51.472;5.712;2022-09-09T11:45:23;100653.88;;;16.85;100.00
42105;BME280;61464;51.472;5.712;2022-09-09T12:02:02;100651.84;;;17.21;99.95
42105;BME280;61464;51.472;5.712;2022-09-09T12:08:27;100647.00;;;16.98;100.00
42105;BME280;61464;51.472;5.712;2022-09-09T12:11:29;100653.47;;;17.15;100.00
42105;BME280;61464;51.472;5.712;2022-09-09T12:17:56;100644.00;;;17.01;99.64
42105;BME280;61464;51.472;5.712;2022-09-09T12:20:41;100647.03;;;16.84;100.00
42105;BME280;61464;51.472;5.712;2022-09-09T12:23:51;100646.81;;;16.93;100.00
42105;BME280;61464;51.472;5.712;2022-09-09T12:26:36;100638.53;;;17.16;99.44
42105;BME280;61464;51.472;5.712;2022-09-09T12:29:51;100634.25;;;17.41;98.81
42105;BME280;61464;51.472;5.712;2022-09-09T12:33:11;100630.31;;;17.57;96.95
42105;BME280;61464;51.472;5.712;2022-09-09T12:36:11;100626.44;;;17.73;95.29
42105;BME280;61464;51.472;5.712;2022-09-09T12:38:47;100617.31;;;17.76;96.64
42105;BME280;61464;51.472;5.712;2022-09-09T12:42:01;100628.38;;;18.29;95.55
42105;BME280;61464;51.472;5.712;2022-09-09T12:44:59;100615.09;;;18.49;92.85
42105;BME280;61464;51.472;5.712;2022-09-09T12:48:04;100619.53;;;18.24;91.65
42105;BME280;61464;51.472;5.712;2022-09-09T12:54:14;100613.88;;;18.52;92.29
42105;BME280;61464;51.472;5.712;2022-09-09T12:57:03;100608.50;;;18.65;89.73
42105;BME280;61464;51.472;5.712;2022-09-09T13:00:06;100605.81;;;18.22;91.87
42105;BME280;61464;51.472;5.712;2022-09-09T13:03:16;100616.09;;;18.23;91.00
42105;BME280;61464;51.472;5.712;2022-09-09T13:06:30;100598.06;;;18.27;89.80
42105;BME280;61464;51.472;5.712;2022-09-09T13:09:37;100607.66;;;18.15;88.90
42105;BME280;61464;51.472;5.712;2022-09-09T13:12:31;100600.63;;;18.08;89.29
42105;BME280;61464;51.472;5.712;2022-09-09T13:15:23;100594.19;;;18.04;89.15
42105;BME280;61464;51.472;5.712;2022-09-09T13:18:29;100590.13;;;18.08;87.81
42105;BME280;61464;51.472;5.712;2022-09-09T13:21:34;100590.63;;;17.92;88.36
42105;BME280;61464;51.472;5.712;2022-09-09T13:24:33;100586.84;;;17.75;87.91
42105;BME280;61464;51.472;5.712;2022-09-09T13:27:38;100588.00;;;17.92;88.55
42105;BME280;61464;51.472;5.712;2022-09-09T13:30:39;100576.78;;;18.35;86.49
42105;BME280;61464;51.472;5.712;2022-09-09T13:36:47;100574.84;;;19.66;80.46
42105;BME280;61464;51.472;5.712;2022-09-09T13:39:52;100568.78;;;19.66;79.25
42105;BME280;61464;51.472;5.712;2022-09-09T13:43:17;100576.03;;;19.70;79.59
42105;BME280;61464;51.472;5.712;2022-09-09T13:45:59;100573.50;;;19.94;76.86
42105;BME280;61464;51.472;5.712;2022-09-09T13:49:19;100576.94;;;19.27;78.23
42105;BME280;61464;51.472;5.712;2022-09-09T13:55:05;100582.31;;;18.77;82.55
42105;BME280;61464;51.472;5.712;2022-09-09T13:58:16;100586.72;;;18.83;82.03
42105;BME280;61464;51.472;5.712;2022-09-09T14:01:12;100579.72;;;18.96;82.38
42105;BME280;61464;51.472;5.712;2022-09-09T14:04:15;100572.28;;;19.60;78.97
42105;BME280;61464;51.472;5.712;2022-09-09T14:07:34;100576.34;;;19.44;77.93
42105;BME280;61464;51.472;5.712;2022-09-09T14:10:25;100563.66;;;19.22;78.98
42105;BME280;61464;51.472;5.712;2022-09-09T14:13:22;100573.88;;;19.12;80.51
42105;BME280;61464;51.472;5.712;2022-09-09T14:19:48;100561.47;;;19.98;75.94
42105;BME280;61464;51.472;5.712;2022-09-09T14:22:51;100572.00;;;19.68;76.38
42105;BME280;61464;51.472;5.712;2022-09-09T14:25:42;100570.91;;;19.76;76.74
42105;BME280;61464;51.472;5.712;2022-09-09T14:28:42;100570.31;;;19.74;77.24
42105;BME280;61464;51.472;5.712;2022-09-09T14:31:51;100567.00;;;19.29;77.29
42105;BME280;61464;51.472;5.712;2022-09-09T14:34:50;100563.50;;;19.17;78.35
42105;BME280;61464;51.472;5.712;2022-09-09T14:37:51;100567.47;;;19.08;78.30
42105;BME280;61464;51.472;5.712;2022-09-09T14:40:54;100569.94;;;19.03;78.19
42105;BME280;61464;51.472;5.712;2022-09-09T14:43:57;100564.53;;;18.98;78.71
42105;BME280;61464;51.472;5.712;2022-09-09T14:47:01;100567.25;;;19.28;77.68
42105;BME280;61464;51.472;5.712;2022-09-09T14:50:17;100587.66;;;19.93;76.36
42105;BME280;61464;51.472;5.712;2022-09-09T14:53:05;100563.13;;;19.81;76.96
42105;BME280;61464;51.472;5.712;2022-09-09T14:56:25;100572.75;;;19.87;76.70
42105;BME280;61464;51.472;5.712;2022-09-09T14:59:26;100565.75;;;19.81;77.56
42105;BME280;61464;51.472;5.712;2022-09-09T15:02:17;100558.44;;;19.83;77.68
42105;BME280;61464;51.472;5.712;2022-09-09T15:05:20;100561.97;;;19.58;78.05
42105;BME280;61464;51.472;5.712;2022-09-09T15:08:24;100567.25;;;19.58;78.30
42105;BME280;61464;51.472;5.712;2022-09-09T15:11:30;100567.44;;;19.45;78.04
42105;BME280;61464;51.472;5.712;2022-09-09T15:17:39;100561.09;;;18.97;79.61
42105;BME280;61464;51.472;5.712;2022-09-09T15:20:45;100562.03;;;18.84;80.08
42105;BME280;61464;51.472;5.712;2022-09-09T15:23:40;100558.38;;;19.22;79.93
42105;BME280;61464;51.472;5.712;2022-09-09T15:30:02;100567.72;;;19.37;77.55
42105;BME280;61464;51.472;5.712;2022-09-09T15:36:22;100574.59;;;19.19;77.66
42105;BME280;61464;51.472;5.712;2022-09-09T15:39:08;100569.63;;;19.11;76.92
42105;BME280;61464;51.472;5.712;2022-09-09T15:45:07;100570.88;;;18.90;77.84
42105;BME280;61464;51.472;5.712;2022-09-09T15:48:05;62788.34;;;-146.16;100.00
42105;BME280;61464;51.472;5.712;2022-09-09T15:51:08;62788.34;;;-146.16;100.00
42105;BME280;61464;51.472;5.712;2022-09-09T15:54:14;62788.34;;;-146.16;100.00
42105;BME280;61464;51.472;5.712;2022-09-09T15:56:56;62788.34;;;-146.16;100.00
42105;BME280;61464;51.472;5.712;2022-09-09T15:59:53;62788.34;;;-146.16;100.00
42105;BME280;61464;51.472;5.712;2022-09-09T16:02:56;62788.34;;;-146.16;100.00
42105;BME280;61464;51.472;5.712;2022-09-09T16:05:56;62788.34;;;-146.16;100.00
42105;BME280;61464;51.472;5.712;2022-09-09T16:09:02;62788.34;;;-146.16;100.00
42105;BME280;61464;51.472;5.712;2022-09-09T16:12:07;62788.34;;;-146.16;100.00
42105;BME280;61464;51.472;5.712;2022-09-09T16:15:31;62788.34;;;-146.16;100.00
42105;BME280;61464;51.472;5.712;2022-09-09T16:18:34;62788.34;;;-146.16;100.00
42105;BME280;61464;51.472;5.712;2022-09-09T16:21:52;62788.34;;;-146.16;100.00
42105;BME280;61464;51.472;5.712;2022-09-09T16:25:04;62788.34;;;-146.16;100.00
42105;BME280;61464;51.472;5.712;2022-09-09T16:28:10;62788.34;;;-146.16;100.00
42105;BME280;61464;51.472;5.712;2022-09-09T16:34:29;62788.34;;;-146.16;100.00
42105;BME280;61464;51.472;5.712;2022-09-09T16:37:19;62788.34;;;-146.16;100.00
42105;BME280;61464;51.472;5.712;2022-09-09T16:40:38;62788.34;;;-146.16;100.00
42105;BME280;61464;51.472;5.712;2022-09-09T16:43:43;62788.34;;;-146.16;100.00
42105;BME280;61464;51.472;5.712;2022-09-09T16:46:49;62788.34;;;-146.16;100.00
42105;BME280;61464;51.472;5.712;2022-09-09T16:49:36;62788.34;;;-146.16;100.00
42105;BME280;61464;51.472;5.712;2022-09-09T16:52:52;62788.34;;;-146.16;100.00
42105;BME280;61464;51.472;5.712;2022-09-09T16:55:51;62788.34;;;-146.16;100.00
42105;BME280;61464;51.472;5.712;2022-09-09T16:58:38;62788.34;;;-146.16;100.00
42105;BME280;61464;51.472;5.712;2022-09-09T17:01:46;62788.34;;;-146.16;100.00
42105;BME280;61464;51.472;5.712;2022-09-09T17:19:45;62788.34;;;-146.16;100.00
42105;BME280;61464;51.472;5.712;2022-09-09T17:22:32;62788.34;;;-146.16;100.00
42105;BME280;61464;51.472;5.712;2022-09-09T17:25:14;62788.34;;;-146.16;100.00
42105;BME280;61464;51.472;5.712;2022-09-09T17:28:02;62788.34;;;-146.16;100.00
42105;BME280;61464;51.472;5.712;2022-09-09T17:31:06;62788.34;;;-146.16;100.00
42105;BME280;61464;51.472;5.712;2022-09-09T17:34:10;62788.34;;;-146.16;100.00
42105;BME280;61464;51.472;5.712;2022-09-09T17:37:10;62788.34;;;-146.16;100.00
42105;BME280;61464;51.472;5.712;2022-09-09T17:40:10;62788.34;;;-146.16;100.00
42105;BME280;61464;51.472;5.712;2022-09-09T17:43:17;62788.34;;;-146.16;100.00
42105;BME280;61464;51.472;5.712;2022-09-09T17:46:28;62788.34;;;-146.16;100.00
42105;BME280;61464;51.472;5.712;2022-09-09T17:49:22;62788.34;;;-146.16;100.00
42105;BME280;61464;51.472;5.712;2022-09-09T17:52:31;62788.34;;;-146.16;100.00
